Time;durP1;ratioP1;P1;durP2;ratioP2;P2;SDS_P1;SDS_P2;PMS_P1;PMS_P2;Temp;Humidity;BMP_temperature;BMP_pressure;BME280_temperature;BME280_humidity;BME280_pressure;Samples;Min_cycle;Max_cycle;Signal;HPM_P1;HPM_P2
2024/03/14 00:02:18;;;;;;;11.40;9.10;;;10.50;91.80;;;;;;5051424;28;20067;-63
2024/03/14 00:04:44;;;;;;;10.50;8.35;;;10.60;91.80;;;;;;5053332;28;20035;-62
2024/03/14 00:07:10;;;;;;;10.52;8.23;;;10.60;91.70;;;;;;5049572;28;20040;-63
2024/03/14 00:09:36;;;;;;;11.32;8.75;;;10.60;91.60;;;;;;5050196;28;20502;-63
2024/03/14 00:12:01;;;;;;;11.25;8.88;;;10.60;91.50;;;;;;5049348;28;20056;-63
2024/03/14 00:14:27;;;;;;;12.65;9.65;;;10.60;91.40;;;;;;5050313;28;20033;-63
2024/03/14 00:16:53;;;;;;;11.18;9.20;;;10.60;91.40;;;;;;5048524;28;20109;-61
2024/03/14 00:19:21;;;;;;;11.35;8.73;;;10.60;91.40;;;;;;5049460;28;20039;-61
2024/03/14 00:21:48;;;;;;;11.60;9.30;;;10.50;91.40;;;;;;5050031;28;20064;-63
2024/03/14 00:24:14;;;;;;;11.93;9.10;;;10.50;91.30;;;;;;5048408;28;20029;-63
2024/03/14 00:26:40;;;;;;;39.83;11.05;;;10.50;91.40;;;;;;5047485;28;20041;-63
2024/03/14 00:29:05;;;;;;;61.28;11.52;;;10.40;91.30;;;;;;5048261;28;20124;-61
2024/03/14 00:31:37;;;;;;;41.28;10.60;;;10.40;91.40;;;;;;5045902;28;20139;-61
2024/03/14 00:34:03;;;;;;;94.45;12.02;;;10.40;91.50;;;;;;5048660;28;20084;-63
2024/03/14 00:36:29;;;;;;;99.90;11.85;;;10.30;91.50;;;;;;5045941;28;20512;-63
2024/03/14 00:38:54;;;;;;;68.50;11.27;;;10.30;91.60;;;;;;5045641;28;20068;-63
2024/03/14 00:41:20;;;;;;;63.20;10.52;;;10.20;91.60;;;;;;5048699;28;20033;-62
2024/03/14 00:43:47;;;;;;;58.22;10.15;;;10.20;91.70;;;;;;5048124;28;20072;-63
2024/03/14 00:46:15;;;;;;;39.97;9.38;;;10.20;91.70;;;;;;5047265;28;20064;-62
2024/03/14 00:48:41;;;;;;;35.35;10.02;;;10.10;91.80;;;;;;5037882;28;20068;-64
2024/03/14 00:51:07;;;;;;;24.27;9.63;;;10.00;91.80;;;;;;5044750;28;20572;-63
2024/03/14 00:53:33;;;;;;;41.28;9.30;;;10.00;91.90;;;;;;5045673;28;20047;-63
2024/03/14 00:56:01;;;;;;;30.90;9.27;;;9.90;92.00;;;;;;5048251;28;20033;-63
2024/03/14 00:58:28;;;;;;;18.73;9.00;;;9.90;92.10;;;;;;5044663;28;20040;-63
2024/03/14 01:00:53;;;;;;;32.65;9.38;;;9.80;92.20;;;;;;5044094;28;20445;-61
2024/03/14 01:03:19;;;;;;;27.80;8.63;;;9.80;92.30;;;;;;5041630;28;20147;-63
2024/03/14 01:05:45;;;;;;;19.65;9.10;;;9.70;92.40;;;;;;5044446;28;20111;-63
2024/03/14 01:08:10;;;;;;;20.98;9.00;;;9.70;92.50;;;;;;5044082;28;20131;-63
2024/03/14 01:10:36;;;;;;;13.95;8.93;;;9.70;92.50;;;;;;5048558;28;20090;-62
2024/03/14 01:13:06;;;;;;;34.22;9.27;;;9.70;92.60;;;;;;5042158;28;20029;-63
2024/03/14 01:15:31;;;;;;;17.27;9.38;;;9.60;92.70;;;;;;5043196;28;20303;-62
2024/03/14 01:17:57;;;;;;;33.63;10.23;;;9.60;92.80;;;;;;5046085;28;20504;-61
2024/03/14 01:20:23;;;;;;;33.90;9.10;;;9.60;92.80;;;;;;5047775;28;20037;-63
2024/03/14 01:22:48;;;;;;;32.22;9.00;;;9.60;92.80;;;;;;5039921;28;20083;-63
2024/03/14 01:25:14;;;;;;;19.00;8.27;;;9.60;92.80;;;;;;5040749;28;20523;-62
2024/03/14 01:27:40;;;;;;;30.60;8.48;;;9.60;92.80;;;;;;5042384;28;20040;-63
2024/03/14 01:30:10;;;;;;;35.63;8.48;;;9.60;92.80;;;;;;5043644;28;20034;-62
2024/03/14 01:32:36;;;;;;;24.10;8.25;;;9.60;92.80;;;;;;5043456;28;20040;-63
2024/03/14 01:35:01;;;;;;;18.42;7.50;;;9.60;92.90;;;;;;5046516;28;20041;-62
2024/03/14 01:37:27;;;;;;;23.77;8.85;;;9.60;92.80;;;;;;5043257;28;20044;-63
2024/03/14 01:39:53;;;;;;;34.92;7.72;;;9.60;92.80;;;;;;5042338;28;20511;-63
2024/03/14 01:42:18;;;;;;;28.25;7.85;;;9.60;92.80;;;;;;5046301;28;20033;-62
2024/03/14 01:44:44;;;;;;;22.20;8.30;;;9.60;92.70;;;;;;5045016;28;20507;-63
2024/03/14 01:47:10;;;;;;;25.83;7.20;;;9.50;92.70;;;;;;5039537;28;20044;-62
2024/03/14 01:49:35;;;;;;;29.80;7.28;;;9.60;92.70;;;;;;5044099;28;20033;-63
2024/03/14 01:52:01;;;;;;;20.10;7.07;;;9.60;92.70;;;;;;5044012;28;20455;-63
2024/03/14 01:54:27;;;;;;;15.38;7.13;;;9.50;92.70;;;;;;5043167;28;20128;-63
2024/03/14 01:56:58;;;;;;;29.75;6.95;;;9.50;92.60;;;;;;5049435;28;20041;-61
2024/03/14 01:59:28;;;;;;;39.17;7.13;;;9.50;92.60;;;;;;5043562;28;20033;-62
2024/03/14 02:01:55;;;;;;;26.48;7.25;;;9.50;92.50;;;;;;5047914;28;20056;-63
2024/03/14 02:04:31;;;;;;;16.73;7.30;;;9.40;92.50;;;;;;5041934;28;20029;-63
2024/03/14 02:07:14;;;;;;;12.90;6.65;;;9.50;92.60;;;;;;5047665;28;20281;-63
2024/03/14 02:09:40;;;;;;;37.28;7.10;;;9.50;92.70;;;;;;5050258;28;20033;-63
2024/03/14 02:12:10;;;;;;;31.42;6.93;;;9.50;92.60;;;;;;5043155;28;20493;-63
2024/03/14 02:14:36;;;;;;;20.98;7.28;;;9.50;92.50;;;;;;5044345;28;20094;-62
2024/03/14 02:17:05;;;;;;;58.53;7.78;;;9.50;92.40;;;;;;5045312;28;20495;-63
2024/03/14 02:19:31;;;;;;;20.05;7.30;;;9.50;92.40;;;;;;5046909;28;20059;-62
2024/03/14 02:22:02;;;;;;;30.15;7.65;;;9.50;92.30;;;;;;5049187;28;20039;-63
2024/03/14 02:24:28;;;;;;;47.47;8.70;;;9.50;92.80;;;;;;5042521;28;20033;-63
2024/03/14 02:26:55;;;;;;;34.92;8.80;;;9.40;92.40;;;;;;5039958;28;20030;-60
2024/03/14 02:29:21;;;;;;;44.58;9.20;;;9.40;92.40;;;;;;5045284;28;20558;-63
2024/03/14 02:31:47;;;;;;;38.67;8.20;;;9.40;92.50;;;;;;5047199;28;20041;-63
2024/03/14 02:34:14;;;;;;;31.27;9.18;;;9.40;92.60;;;;;;5049982;28;20029;-63
2024/03/14 02:36:40;;;;;;;76.57;9.02;;;9.40;92.60;;;;;;5050210;28;20041;-62
2024/03/14 02:39:06;;;;;;;48.85;9.73;;;9.30;92.60;;;;;;5040576;28;20086;-62
2024/03/14 02:41:32;;;;;;;83.18;9.32;;;9.30;92.90;;;;;;5046008;28;20044;-63
2024/03/14 02:43:58;;;;;;;17.10;8.07;;;9.30;92.50;;;;;;5050973;28;20029;-63
2024/03/14 02:46:27;;;;;;;32.38;9.38;;;9.30;92.50;;;;;;5052170;28;20041;-62
2024/03/14 02:48:53;;;;;;;34.30;9.02;;;9.30;92.60;;;;;;5050424;28;20468;-63
2024/03/14 02:51:19;;;;;;;27.55;9.77;;;9.30;92.70;;;;;;5051207;28;20057;-61
2024/03/14 02:53:46;;;;;;;19.08;9.13;;;9.30;92.70;;;;;;5048617;28;20033;-62
2024/03/14 02:56:11;;;;;;;12.45;9.20;;;9.30;92.80;;;;;;5045375;28;20124;-63
2024/03/14 02:58:37;;;;;;;14.77;9.30;;;9.30;92.80;;;;;;5049543;28;20626;-63
2024/03/14 03:01:08;;;;;;;19.33;8.70;;;9.30;92.80;;;;;;5045321;28;20518;-63
2024/03/14 03:03:37;;;;;;;20.45;9.00;;;9.40;92.80;;;;;;5043957;28;20035;-63
2024/03/14 03:06:10;;;;;;;41.97;9.38;;;9.40;92.80;;;;;;5045670;28;20037;-63
2024/03/14 03:08:37;;;;;;;63.83;9.70;;;9.50;92.80;;;;;;5044204;28;20037;-64
2024/03/14 03:11:02;;;;;;;41.92;9.05;;;9.50;92.60;;;;;;5044955;28;20182;-62
2024/03/14 03:13:28;;;;;;;50.50;8.77;;;9.50;92.50;;;;;;5047402;28;20579;-63
2024/03/14 03:15:54;;;;;;;21.85;8.80;;;9.50;92.40;;;;;;5042719;28;20041;-62
2024/03/14 03:18:20;;;;;;;22.88;8.32;;;9.50;92.40;;;;;;5043256;28;20026;-63
2024/03/14 03:20:46;;;;;;;59.28;8.40;;;9.50;92.30;;;;;;5041994;28;20102;-63
2024/03/14 03:23:12;;;;;;;32.17;7.93;;;9.50;92.30;;;;;;5048778;28;20417;-63
2024/03/14 03:25:38;;;;;;;54.05;8.20;;;9.50;92.20;;;;;;5049402;28;20460;-63
2024/03/14 03:28:12;;;;;;;28.80;8.07;;;9.50;92.10;;;;;;5043795;28;20057;-62
2024/03/14 03:30:37;;;;;;;21.42;7.18;;;9.50;92.10;;;;;;5040920;28;20031;-63
2024/03/14 03:33:16;;;;;;;31.95;7.50;;;9.40;92.10;;;;;;5045734;28;20024;-63
2024/03/14 03:35:43;;;;;;;25.30;7.55;;;9.40;92.20;;;;;;5044699;28;20037;-63
2024/03/14 03:38:09;;;;;;;32.90;7.80;;;9.40;92.20;;;;;;5048129;28;20055;-63
2024/03/14 03:40:38;;;;;;;66.88;8.68;;;9.40;92.20;;;;;;5048023;28;20119;-62
2024/03/14 03:43:04;;;;;;;47.13;8.75;;;9.40;92.20;;;;;;5039417;28;20029;-63
2024/03/14 03:45:30;;;;;;;38.28;8.35;;;9.40;92.20;;;;;;5038239;28;20025;-62
2024/03/14 03:47:56;;;;;;;83.22;10.23;;;9.30;92.20;;;;;;5048704;28;20104;-63
2024/03/14 03:50:25;;;;;;;56.53;8.35;;;9.40;92.20;;;;;;5048483;28;20508;-63
2024/03/14 03:52:51;;;;;;;22.55;6.38;;;9.30;92.10;;;;;;5036913;28;20041;-62
2024/03/14 03:55:17;;;;;;;42.40;8.38;;;9.30;92.10;;;;;;5042424;28;20036;-63
2024/03/14 03:57:44;;;;;;;71.90;8.95;;;9.30;92.20;;;;;;5046087;28;20052;-63
2024/03/14 04:02:55;;;;;;;;;;;9.20;92.20;;;;;;5045923;28;20047;-62
2024/03/14 04:05:20;;;;;;;52.33;8.18;;;9.30;92.40;;;;;;5048894;28;19913;-63
2024/03/14 04:07:49;;;;;;;55.33;9.88;;;9.20;92.10;;;;;;5043152;28;20122;-63
2024/03/14 04:10:15;;;;;;;51.45;8.63;;;9.20;92.10;;;;;;5042494;28;20140;-63
2024/03/14 04:12:41;;;;;;;59.55;8.25;;;9.20;92.10;;;;;;5039412;28;20060;-63
2024/03/14 04:15:07;;;;;;;62.28;7.15;;;9.20;92.20;;;;;;5042126;28;20037;-61
2024/03/14 04:17:33;;;;;;;46.53;6.55;;;9.10;92.10;;;;;;5046462;28;20136;-61
2024/03/14 04:19:59;;;;;;;14.35;5.80;;;9.10;92.10;;;;;;5038905;28;20553;-63
2024/03/14 04:22:25;;;;;;;27.70;5.78;;;9.10;92.10;;;;;;5047710;28;20033;-64
2024/03/14 04:24:54;;;;;;;21.13;5.88;;;9.10;92.10;;;;;;5044679;28;20136;-61
2024/03/14 04:27:21;;;;;;;18.52;5.88;;;9.00;92.10;;;;;;5042447;28;20033;-63
2024/03/14 04:29:47;;;;;;;10.80;6.30;;;9.00;92.00;;;;;;5039211;28;20033;-62
2024/03/14 04:32:13;;;;;;;21.35;7.15;;;9.00;92.00;;;;;;5044456;28;20037;-63
2024/03/14 04:34:39;;;;;;;18.08;8.40;;;8.90;91.90;;;;;;5043214;28;20124;-64
2024/03/14 04:37:08;;;;;;;17.13;8.32;;;9.00;92.00;;;;;;5048306;28;20040;-63
2024/03/14 04:39:33;;;;;;;23.42;8.52;;;8.90;92.00;;;;;;5049007;28;20029;-61
2024/03/14 04:41:59;;;;;;;26.55;8.80;;;8.90;92.00;;;;;;5049898;28;20087;-63
2024/03/14 04:44:25;;;;;;;19.33;9.27;;;8.90;92.10;;;;;;5040177;28;20048;-63
2024/03/14 04:46:54;;;;;;;19.73;9.27;;;8.90;92.10;;;;;;5043956;28;20397;-63
2024/03/14 04:49:23;;;;;;;17.45;9.15;;;8.90;92.00;;;;;;5048420;28;20504;-61
2024/03/14 04:51:48;;;;;;;16.13;9.55;;;8.90;92.00;;;;;;5049143;28;20029;-62
2024/03/14 04:54:14;;;;;;;11.40;8.20;;;8.90;92.00;;;;;;5041815;28;20126;-61
2024/03/14 04:56:40;;;;;;;18.75;7.72;;;8.90;92.10;;;;;;5044745;28;20037;-63
2024/03/14 04:59:09;;;;;;;27.13;7.80;;;8.80;92.10;;;;;;5043160;28;20045;-63
2024/03/14 05:01:35;;;;;;;13.38;6.70;;;8.80;92.10;;;;;;5041609;28;20110;-62
2024/03/14 05:04:03;;;;;;;18.60;7.78;;;8.80;92.20;;;;;;5047778;28;20139;-63
2024/03/14 05:06:28;;;;;;;15.63;7.97;;;8.80;92.30;;;;;;5049822;28;20075;-63
2024/03/14 05:08:54;;;;;;;20.67;8.15;;;8.80;92.40;;;;;;5046964;28;20071;-63
2024/03/14 05:11:21;;;;;;;29.60;7.97;;;8.80;92.70;;;;;;5045220;28;20037;-63
2024/03/14 05:13:56;;;;;;;12.45;7.28;;;8.80;92.40;;;;;;5049699;28;20083;-63
2024/03/14 05:16:22;;;;;;;;;;;8.80;92.40;;;;;;5044245;28;20120;-63
2024/03/14 05:18:47;;;;;;;10.93;7.10;;;8.80;92.60;;;;;;5042748;28;20007;-62
2024/03/14 05:21:15;;;;;;;14.32;7.38;;;8.90;92.30;;;;;;5047070;28;20475;-62
2024/03/14 05:23:41;;;;;;;11.85;8.07;;;8.90;92.30;;;;;;5046766;28;20033;-61
2024/03/14 05:26:07;;;;;;;14.70;7.85;;;9.00;92.30;;;;;;5047018;28;20037;-60
2024/03/14 05:28:33;;;;;;;26.25;8.50;;;9.00;92.30;;;;;;5044442;28;20061;-62
2024/03/14 05:30:59;;;;;;;18.63;8.18;;;9.00;92.30;;;;;;5046163;28;20044;-62
2024/03/14 05:33:25;;;;;;;15.27;8.10;;;9.00;92.30;;;;;;5046027;28;20037;-63
2024/03/14 05:35:50;;;;;;;14.07;8.65;;;9.00;92.30;;;;;;5047940;28;20060;-63
2024/03/14 05:38:16;;;;;;;25.40;9.52;;;9.00;92.30;;;;;;5046387;28;20373;-63
2024/03/14 05:40:41;;;;;;;18.30;9.15;;;9.00;92.30;;;;;;5048707;28;20385;-63
2024/03/14 05:43:08;;;;;;;16.45;7.97;;;9.10;92.30;;;;;;5048029;28;20041;-63
2024/03/14 05:45:34;;;;;;;21.60;8.50;;;9.00;92.20;;;;;;5048622;28;20625;-63
2024/03/14 05:48:18;;;;;;;13.70;8.52;;;9.10;92.20;;;;;;5044142;28;20033;-63
2024/03/14 05:50:44;;;;;;;16.33;8.70;;;9.10;92.20;;;;;;5048309;28;20033;-63
2024/03/14 05:53:10;;;;;;;12.82;8.07;;;9.10;92.10;;;;;;5046244;28;20028;-63
2024/03/14 05:55:39;;;;;;;17.63;8.27;;;9.00;92.10;;;;;;5046853;28;20030;-63
2024/03/14 05:58:06;;;;;;;23.50;8.65;;;9.00;92.20;;;;;;5044743;28;20041;-63
2024/03/14 06:00:32;;;;;;;12.75;8.57;;;9.00;92.10;;;;;;5049161;28;20032;-63
2024/03/14 06:02:57;;;;;;;22.60;10.57;;;9.00;92.10;;;;;;5048070;28;20183;-63
2024/03/14 06:05:23;;;;;;;17.10;9.93;;;9.10;92.10;;;;;;5050540;28;20136;-61
2024/03/14 06:07:50;;;;;;;15.40;10.45;;;9.00;92.00;;;;;;5046546;28;20037;-62
2024/03/14 06:10:16;;;;;;;25.30;10.27;;;9.00;92.10;;;;;;5043653;28;20158;-63
2024/03/14 06:12:45;;;;;;;24.02;9.50;;;9.00;92.10;;;;;;5044688;28;20140;-63
2024/03/14 06:15:14;;;;;;;17.05;9.32;;;9.00;92.10;;;;;;5047858;28;20389;-63
2024/03/14 06:17:41;;;;;;;32.67;9.55;;;9.00;92.20;;;;;;5050322;28;20041;-62
2024/03/14 06:20:07;;;;;;;27.13;9.10;;;9.00;92.20;;;;;;5044110;28;20069;-61
2024/03/14 06:22:44;;;;;;;25.98;8.30;;;9.00;92.20;;;;;;5045492;28;20033;-63
2024/03/14 06:25:15;;;;;;;21.73;8.52;;;9.00;92.20;;;;;;5047515;28;20033;-63
2024/03/14 06:27:41;;;;;;;32.22;8.25;;;9.00;92.10;;;;;;5049847;28;20514;-63
2024/03/14 06:30:11;;;;;;;21.15;7.95;;;9.00;92.10;;;;;;5045454;28;20492;-64
2024/03/14 06:32:36;;;;;;;20.38;8.13;;;9.00;92.10;;;;;;5048905;28;20061;-64
2024/03/14 06:35:06;;;;;;;44.42;8.20;;;9.00;92.10;;;;;;5040368;28;20061;-62
2024/03/14 06:37:33;;;;;;;35.45;7.15;;;9.00;92.20;;;;;;5048099;28;20049;-63
2024/03/14 06:39:59;;;;;;;54.55;8.90;;;9.10;92.20;;;;;;5050879;28;20029;-63
2024/03/14 06:42:25;;;;;;;37.00;7.60;;;9.00;92.20;;;;;;5052254;28;20041;-63
2024/03/14 06:44:51;;;;;;;45.80;7.72;;;9.00;92.20;;;;;;5051257;28;20121;-63
2024/03/14 06:47:18;;;;;;;24.42;7.45;;;9.00;92.20;;;;;;5039549;28;20037;-63
2024/03/14 06:49:44;;;;;;;51.72;8.50;;;9.00;92.30;;;;;;5043479;28;20025;-63
2024/03/14 06:52:09;;;;;;;39.67;7.50;;;9.00;92.30;;;;;;5045372;28;20048;-63
2024/03/14 06:54:36;;;;;;;94.03;8.65;;;8.90;92.40;;;;;;5039548;28;20057;-63
2024/03/14 06:57:02;;;;;;;83.35;9.02;;;8.90;92.50;;;;;;5047566;28;20573;-63
2024/03/14 06:59:28;;;;;;;48.38;7.97;;;8.90;92.50;;;;;;5042911;28;20116;-63
2024/03/14 07:01:55;;;;;;;52.17;7.93;;;8.90;92.50;;;;;;5049441;28;20416;-63
2024/03/14 07:04:21;;;;;;;86.75;7.80;;;8.90;92.50;;;;;;5049243;28;20044;-63
2024/03/14 07:06:47;;;;;;;55.70;10.77;;;9.00;92.50;;;;;;5048098;28;20043;-63
2024/03/14 07:09:17;;;;;;;64.45;8.77;;;9.00;92.50;;;;;;5050602;28;20033;-63
2024/03/14 07:11:46;;;;;;;45.38;6.60;;;9.00;92.50;;;;;;5049477;28;20033;-63
2024/03/14 07:14:12;;;;;;;22.63;5.88;;;9.00;92.50;;;;;;5048477;28;20069;-63
2024/03/14 07:16:42;;;;;;;43.03;7.15;;;9.00;92.50;;;;;;5048015;28;20067;-63
2024/03/14 07:19:07;;;;;;;33.67;5.82;;;9.10;92.50;;;;;;5047692;28;20072;-63
2024/03/14 07:21:33;;;;;;;44.13;6.55;;;9.00;92.50;;;;;;5048701;28;20052;-62
2024/03/14 07:23:59;;;;;;;27.75;7.03;;;9.00;92.50;;;;;;5040999;28;20033;-62
2024/03/14 07:26:32;;;;;;;41.88;6.65;;;9.00;92.50;;;;;;5043174;28;20037;-63
2024/03/14 07:28:58;;;;;;;30.02;6.13;;;9.00;92.50;;;;;;5039727;28;20504;-63
2024/03/14 07:31:28;;;;;;;43.55;6.63;;;9.00;92.50;;;;;;5047121;28;20051;-63
2024/03/14 07:33:54;;;;;;;15.77;5.47;;;9.00;92.50;;;;;;5047399;28;20033;-63
2024/03/14 07:36:19;;;;;;;12.88;5.47;;;9.10;92.60;;;;;;5046925;28;20029;-64
2024/03/14 07:38:47;;;;;;;7.88;5.85;;;9.10;92.60;;;;;;5044406;28;20468;-63
2024/03/14 07:41:20;;;;;;;12.55;6.00;;;9.20;92.60;;;;;;5043489;28;20083;-63
2024/03/14 07:43:46;;;;;;;11.20;5.95;;;9.10;92.60;;;;;;5041801;28;20040;-63
2024/03/14 07:46:12;;;;;;;16.48;6.28;;;9.10;92.50;;;;;;5049139;28;20041;-63
2024/03/14 07:48:38;;;;;;;16.00;6.82;;;9.10;92.50;;;;;;5038841;28;20094;-63
2024/03/14 07:51:05;;;;;;;12.65;6.70;;;9.10;92.60;;;;;;5044108;28;20040;-63
2024/03/14 07:53:33;;;;;;;14.15;7.05;;;9.10;92.60;;;;;;5047261;28;20033;-63
2024/03/14 07:55:59;;;;;;;13.45;7.28;;;9.10;92.60;;;;;;5035208;28;20117;-63
2024/03/14 07:58:25;;;;;;;12.60;7.45;;;9.20;92.70;;;;;;5043938;28;20124;-63
2024/03/14 08:00:52;;;;;;;13.45;8.05;;;9.20;92.70;;;;;;5041037;28;20432;-63
2024/03/14 08:03:18;;;;;;;11.68;7.95;;;9.20;92.70;;;;;;5036345;28;20037;-64
2024/03/14 08:05:50;;;;;;;10.85;7.20;;;9.20;92.70;;;;;;5046385;28;20029;-63
2024/03/14 08:08:17;;;;;;;9.05;7.28;;;9.30;92.70;;;;;;5044939;28;20150;-63
2024/03/14 08:10:45;;;;;;;8.93;6.60;;;9.30;92.70;;;;;;5044865;28;20496;-63
2024/03/14 08:13:17;;;;;;;9.95;6.88;;;9.40;92.70;;;;;;5044463;28;20025;-63
2024/03/14 08:15:52;;;;;;;9.73;7.45;;;9.40;92.60;;;;;;5045327;28;20128;-64
2024/03/14 08:18:21;;;;;;;;;;;9.40;92.60;;;;;;5048826;28;20033;-64
2024/03/14 08:20:47;;;;;;;7.25;6.13;;;9.40;92.60;;;;;;5044021;28;19913;-63
2024/03/14 08:23:15;;;;;;;9.77;6.53;;;9.50;92.60;;;;;;5040706;28;20123;-63
2024/03/14 08:25:42;;;;;;;8.85;6.97;;;9.50;92.60;;;;;;5043686;28;20029;-63
2024/03/14 08:28:07;;;;;;;7.80;6.40;;;9.60;92.70;;;;;;5046776;28;20041;-63
2024/03/14 08:30:36;;;;;;;8.15;6.93;;;9.60;92.70;;;;;;5047276;28;20401;-63
2024/03/14 08:33:03;;;;;;;8.38;6.57;;;9.70;93.00;;;;;;5048126;28;20036;-63
2024/03/14 08:35:28;;;;;;;8.38;6.28;;;9.70;92.60;;;;;;5049495;28;20029;-63
2024/03/14 08:37:54;;;;;;;9.35;6.68;;;9.80;92.50;;;;;;5049193;28;20056;-62
2024/03/14 08:40:20;;;;;;;9.25;6.22;;;9.80;92.40;;;;;;5048941;28;20116;-63
2024/03/14 08:42:46;;;;;;;9.98;6.45;;;9.90;92.40;;;;;;5044805;28;20041;-63
2024/03/14 08:45:12;;;;;;;17.98;6.78;;;9.90;92.10;;;;;;5044772;28;20033;-63
2024/03/14 08:47:38;;;;;;;8.27;6.30;;;10.00;92.40;;;;;;5043145;28;20037;-63
2024/03/14 08:50:05;;;;;;;9.85;6.57;;;10.00;92.40;;;;;;5042223;28;20515;-62
2024/03/14 08:52:31;;;;;;;7.95;6.07;;;10.10;92.50;;;;;;5045453;28;20060;-63
2024/03/14 08:54:58;;;;;;;7.70;5.68;;;10.10;92.50;;;;;;5045678;28;20122;-63
2024/03/14 08:57:25;;;;;;;9.50;5.70;;;10.20;92.40;;;;;;5049785;28;20087;-69
2024/03/14 08:59:53;;;;;;;5.03;4.30;;;10.30;92.30;;;;;;5037382;28;20492;-63
2024/03/14 09:02:22;;;;;;;3.53;2.97;;;10.40;92.20;;;;;;5041002;28;20439;-64
2024/03/14 09:04:50;;;;;;;2.33;2.13;;;10.50;92.00;;;;;;5042829;28;20166;-63
2024/03/14 09:07:16;;;;;;;4.15;2.60;;;10.50;91.80;;;;;;5040668;28;20040;-63
2024/03/14 09:09:44;;;;;;;2.40;2.15;;;10.60;91.70;;;;;;5044467;28;20037;-63
2024/03/14 09:12:24;;;;;;;1.90;1.70;;;10.70;91.50;;;;;;5044986;28;20044;-63
2024/03/14 09:14:51;;;;;;;5.45;2.08;;;10.70;91.40;;;;;;5034184;28;20033;-63
2024/03/14 09:17:17;;;;;;;2.58;2.03;;;10.80;91.30;;;;;;5039855;28;20531;-64
2024/03/14 09:19:44;;;;;;;3.55;2.22;;;10.80;91.30;;;;;;5041211;28;20475;-63
2024/03/14 09:22:10;;;;;;;1.92;1.73;;;11.00;91.20;;;;;;5042156;28;20394;-63
2024/03/14 09:24:35;;;;;;;4.53;3.10;;;11.00;91.20;;;;;;5043733;28;20048;-62
2024/03/14 09:27:06;;;;;;;3.15;1.80;;;11.10;91.20;;;;;;5047137;28;20095;-63
2024/03/14 09:29:32;;;;;;;1.60;1.50;;;11.20;91.10;;;;;;5042340;28;20045;-64
2024/03/14 09:31:59;;;;;;;2.38;1.25;;;11.30;91.00;;;;;;5045290;28;20123;-63
2024/03/14 09:34:25;;;;;;;1.30;1.20;;;11.40;91.00;;;;;;5046362;28;20124;-63
2024/03/14 09:36:53;;;;;;;1.10;1.00;;;11.50;90.90;;;;;;5043430;28;20033;-63
2024/03/14 09:39:21;;;;;;;1.05;1.02;;;11.50;90.80;;;;;;5035134;28;20029;-63
2024/03/14 09:41:48;;;;;;;1.10;0.98;;;11.70;90.70;;;;;;5044660;28;20082;-63
2024/03/14 09:44:18;;;;;;;1.02;0.80;;;11.70;90.40;;;;;;5046733;28;20159;-63
2024/03/14 09:46:49;;;;;;;0.82;0.82;;;11.80;90.20;;;;;;5043961;28;20036;-64
2024/03/14 09:49:19;;;;;;;1.17;0.90;;;11.90;90.00;;;;;;5042230;28;20045;-64
2024/03/14 09:51:48;;;;;;;1.88;1.20;;;11.90;89.90;;;;;;5038691;28;20546;-63
2024/03/14 09:54:18;;;;;;;1.95;1.00;;;12.00;89.80;;;;;;5042938;28;20512;-63
2024/03/14 09:56:44;;;;;;;1.58;1.10;;;12.10;89.50;;;;;;5043845;28;20067;-63
2024/03/14 09:59:14;;;;;;;2.08;1.17;;;12.10;89.30;;;;;;5042041;28;20037;-60
2024/03/14 10:01:44;;;;;;;1.17;1.05;;;12.20;89.40;;;;;;5042797;28;20033;-63
2024/03/14 10:04:11;;;;;;;2.17;1.20;;;12.20;89.00;;;;;;5040598;28;20469;-64
2024/03/14 10:06:40;;;;;;;2.88;1.15;;;12.30;88.90;;;;;;5044727;28;20523;-63
2024/03/14 10:09:12;;;;;;;3.15;1.42;;;12.30;88.80;;;;;;5046942;28;20495;-63
2024/03/14 10:11:44;;;;;;;1.45;1.10;;;12.40;88.60;;;;;;5051028;28;20052;-63
2024/03/14 10:14:16;;;;;;;2.25;1.33;;;12.40;88.50;;;;;;5046543;28;20496;-64
2024/03/14 10:16:44;;;;;;;1.95;1.23;;;12.40;89.20;;;;;;5039875;28;20630;-65
2024/03/14 10:19:10;;;;;;;1.60;1.05;;;12.50;88.50;;;;;;5046626;28;20029;-64
2024/03/14 10:21:36;;;;;;;1.23;1.10;;;12.50;88.50;;;;;;5046169;28;20036;-62
2024/03/14 10:24:02;;;;;;;1.08;1.00;;;12.60;88.30;;;;;;5045836;28;20492;-63
2024/03/14 10:26:29;;;;;;;1.10;1.00;;;12.60;88.10;;;;;;5048001;28;20048;-64
2024/03/14 10:28:57;;;;;;;3.28;1.20;;;12.70;87.80;;;;;;5051177;28;20044;-63
2024/03/14 10:31:24;;;;;;;1.90;1.00;;;12.70;87.90;;;;;;5048434;28;20327;-63
2024/03/14 10:33:49;;;;;;;1.15;1.00;;;12.80;87.60;;;;;;5043181;28;20033;-63
2024/03/14 10:36:18;;;;;;;0.90;0.90;;;12.90;86.90;;;;;;5048495;28;20292;-63
2024/03/14 10:38:45;;;;;;;2.45;1.02;;;12.90;86.70;;;;;;5048644;28;20033;-63
2024/03/14 10:41:14;;;;;;;1.48;0.85;;;13.00;87.10;;;;;;5047520;28;20504;-66
2024/03/14 10:43:46;;;;;;;2.00;1.10;;;13.00;86.60;;;;;;5056818;28;20401;-63
2024/03/14 10:46:13;;;;;;;1.20;1.10;;;13.10;86.70;;;;;;5043111;28;20025;-63
2024/03/14 10:48:39;;;;;;;2.38;1.00;;;13.10;86.40;;;;;;5042149;28;20060;-63
2024/03/14 10:51:06;;;;;;;1.23;0.95;;;13.20;86.10;;;;;;5044298;28;20040;-62
2024/03/14 10:53:34;;;;;;;1.75;1.00;;;13.30;85.90;;;;;;5049932;28;20512;-64
2024/03/14 10:56:02;;;;;;;1.52;1.10;;;13.30;85.90;;;;;;5044379;28;20038;-63
2024/03/14 10:58:30;;;;;;;1.80;1.17;;;13.30;85.80;;;;;;5040437;28;20120;-62
2024/03/14 11:00:56;;;;;;;1.10;1.10;;;13.40;85.50;;;;;;5038536;28;20060;-64
2024/03/14 11:03:22;;;;;;;1.58;1.25;;;13.40;85.50;;;;;;5039005;28;20032;-64
2024/03/14 11:05:52;;;;;;;1.30;0.90;;;13.50;85.50;;;;;;5048573;28;20427;-61
2024/03/14 11:08:21;;;;;;;0.90;0.90;;;13.50;84.50;;;;;;5039411;28;20048;-63
2024/03/14 11:10:52;;;;;;;2.22;0.90;;;13.60;84.30;;;;;;5041659;28;20025;-63
2024/03/14 11:13:27;;;;;;;0.95;0.85;;;13.60;84.60;;;;;;5047495;28;20079;-62
2024/03/14 11:15:55;;;;;;;0.80;0.80;;;13.70;84.10;;;;;;5046379;28;20052;-61
2024/03/14 11:18:36;;;;;;;3.70;1.00;;;13.70;84.60;;;;;;5041303;28;20034;-61
2024/03/14 11:21:04;;;;;;;0.80;0.80;;;13.80;84.30;;;;;;5038872;28;20044;-63
2024/03/14 11:23:31;;;;;;;1.00;1.00;;;13.80;84.20;;;;;;5046679;28;20040;-63
2024/03/14 11:26:03;;;;;;;1.98;1.15;;;13.80;84.00;;;;;;5047635;28;20029;-61
2024/03/14 11:28:31;;;;;;;2.10;0.98;;;13.90;83.60;;;;;;5045996;28;20525;-63
2024/03/14 11:30:57;;;;;;;2.95;0.98;;;13.90;83.60;;;;;;5041186;28;20037;-63
2024/03/14 11:33:30;;;;;;;0.90;0.70;;;14.00;83.80;;;;;;5048238;28;20048;-62
2024/03/14 11:35:59;;;;;;;0.70;0.70;;;14.00;82.20;;;;;;5041763;28;20191;-63
2024/03/14 11:38:28;;;;;;;0.77;0.77;;;14.10;83.10;;;;;;5045092;28;20041;-61
2024/03/14 11:40:58;;;;;;;5.03;1.20;;;14.20;82.90;;;;;;5045371;28;20040;-61
2024/03/14 11:43:25;;;;;;;1.00;0.90;;;14.20;82.90;;;;;;5041972;28;20056;-62
2024/03/14 11:45:57;;;;;;;0.90;0.90;;;14.30;82.80;;;;;;5045655;28;20083;-62
2024/03/14 11:48:24;;;;;;;0.85;0.85;;;14.40;82.20;;;;;;5046344;28;20052;-62
2024/03/14 11:50:58;;;;;;;2.05;0.90;;;14.50;82.70;;;;;;5045630;28;20041;-63
2024/03/14 11:53:25;;;;;;;0.88;0.88;;;14.50;81.90;;;;;;5046266;28;20091;-63
2024/03/14 11:55:52;;;;;;;0.88;0.88;;;14.50;82.20;;;;;;5043644;28;20039;-64
2024/03/14 11:58:20;;;;;;;1.35;0.95;;;14.60;81.70;;;;;;5048247;28;20049;-64
2024/03/14 12:00:47;;;;;;;0.85;0.82;;;14.60;81.90;;;;;;5044534;28;20044;-64
2024/03/14 12:03:18;;;;;;;2.55;0.90;;;14.70;81.90;;;;;;5041257;28;20420;-61
2024/03/14 12:05:56;;;;;;;1.27;0.88;;;14.70;81.80;;;;;;5043079;28;20044;-64
2024/03/14 12:08:22;;;;;;;1.00;0.90;;;14.80;81.30;;;;;;5044636;28;20040;-64
2024/03/14 12:10:52;;;;;;;0.80;0.80;;;14.90;81.90;;;;;;5043108;28;20040;-64
2024/03/14 12:13:22;;;;;;;0.63;0.63;;;14.90;80.80;;;;;;5046059;28;20082;-64
2024/03/14 12:15:59;;;;;;;2.65;1.00;;;15.00;80.70;;;;;;5047598;28;20063;-63
2024/03/14 12:18:25;;;;;;;1.63;0.70;;;15.00;79.80;;;;;;5042944;28;20049;-64
2024/03/14 12:20:53;;;;;;;0.75;0.68;;;15.10;80.50;;;;;;5045214;28;20036;-64
2024/03/14 12:23:22;;;;;;;0.90;0.68;;;15.10;80.30;;;;;;5044765;28;20040;-63
2024/03/14 12:25:50;;;;;;;0.80;0.80;;;15.20;80.00;;;;;;5042921;28;20033;-64
2024/03/14 12:28:16;;;;;;;1.35;0.70;;;15.20;79.90;;;;;;5046847;28;20090;-62
2024/03/14 12:30:43;;;;;;;0.60;0.60;;;15.20;79.60;;;;;;5037811;28;20025;-63
2024/03/14 12:33:13;;;;;;;1.35;0.65;;;15.30;79.10;;;;;;5040378;28;20037;-63
2024/03/14 12:35:40;;;;;;;0.70;0.70;;;15.40;78.70;;;;;;5038990;28;20060;-62
2024/03/14 12:38:11;;;;;;;0.93;0.93;;;15.40;78.60;;;;;;5044564;28;20133;-64
2024/03/14 12:40:37;;;;;;;0.57;0.57;;;15.40;78.20;;;;;;5042550;28;20040;-64
2024/03/14 12:43:04;;;;;;;0.77;0.63;;;15.50;78.30;;;;;;5041342;28;20037;-63
2024/03/14 12:45:31;;;;;;;0.65;0.65;;;15.50;78.50;;;;;;5044145;28;20150;-63
2024/03/14 12:48:00;;;;;;;0.93;0.93;;;15.50;78.10;;;;;;5044386;28;20122;-63
2024/03/14 12:50:27;;;;;;;0.90;0.90;;;15.60;78.10;;;;;;5045211;28;20563;-64
2024/03/14 12:53:03;;;;;;;1.00;0.82;;;15.60;77.60;;;;;;5047498;28;20512;-63